Otisco, Indiana
Current Conditions -  °F | °C
As of 1:53 PM on Friday 24 Oct 2014 (Local Time) from KLOU Reporting Station
Clear Clear  
Wind Chill: 63°   Ceiling: Unl
Heat Index: 63°   Visibility: 10mi
Dew Point: 42°   Wind: 5mph
Humidity: 46%   Direction: NA
Pressure: 30.1"   Gusts: NA
Location:  38.54°N, 85.67°W
Report Text: KLOU 241753Z VRB04KT 10SM CLR 17/06 A3010 RMK AO2 SLP191 T01720056 10172 20044 58016
Loading
Personal Weather Stations






























Interactive Weather Map
Tropical Storm Tracking
New forecast layout! Learn more

10-Day Weather Forecast

Advertisements
Track Severe Weather on mobile